createdAt,value
2023-02-03T00:02:25.766Z,60.55
2023-02-03T00:04:52.601Z,60.67
2023-02-03T00:07:19.699Z,60.52
2023-02-03T00:09:46.674Z,60.39
2023-02-03T00:12:14.426Z,60.40
2023-02-03T00:14:41.297Z,60.23
2023-02-03T00:17:08.398Z,60.04
2023-02-03T00:19:36.581Z,60.04
2023-02-03T00:22:03.477Z,59.81
2023-02-03T00:24:30.399Z,59.85
2023-02-03T00:26:57.233Z,60.12
2023-02-03T00:29:25.959Z,60.07
2023-02-03T00:31:53.913Z,59.80
2023-02-03T00:34:21.373Z,59.77
2023-02-03T00:36:49.664Z,59.54
2023-02-03T00:39:16.810Z,59.46
2023-02-03T00:41:43.784Z,59.63
2023-02-03T00:44:11.060Z,59.46
2023-02-03T00:46:38.096Z,59.40
2023-02-03T00:49:05.740Z,59.48
2023-02-03T00:51:33.535Z,59.38
2023-02-03T00:54:01.739Z,59.33
2023-02-03T00:56:28.655Z,59.38
2023-02-03T00:58:55.712Z,59.41
2023-02-03T01:01:22.709Z,59.32
2023-02-03T01:03:50.072Z,59.50
2023-02-03T01:06:20.290Z,59.28
2023-02-03T01:08:48.772Z,59.10
2023-02-03T01:11:20.769Z,59.03
2023-02-03T01:13:50.151Z,58.91
2023-02-03T01:16:20.595Z,58.96
2023-02-03T01:18:48.522Z,59.00
2023-02-03T01:21:20.167Z,58.65
2023-02-03T01:23:47.559Z,58.96
2023-02-03T01:26:19.675Z,58.68
2023-02-03T01:28:51.933Z,58.76
2023-02-03T01:31:22.891Z,58.85
2023-02-03T01:33:51.961Z,58.61
2023-02-03T01:36:19.142Z,58.74
2023-02-03T01:38:46.551Z,58.60
2023-02-03T01:41:17.744Z,58.43
2023-02-03T01:43:50.060Z,58.53
2023-02-03T01:46:33.448Z,58.36
2023-02-03T01:49:08.110Z,58.14
2023-02-03T01:51:38.261Z,58.18
2023-02-03T01:54:07.473Z,58.31
2023-02-03T01:56:40.554Z,58.19
2023-02-03T01:59:07.988Z,57.97
2023-02-03T02:01:35.757Z,58.21
2023-02-03T02:04:04.919Z,58.22
2023-02-03T02:06:31.836Z,58.22
2023-02-03T02:09:00.740Z,58.02
2023-02-03T02:11:29.536Z,58.17
2023-02-03T02:14:01.916Z,58.08
2023-02-03T02:16:45.903Z,58.22
2023-02-03T02:20:06.334Z,58.07
2023-02-03T02:22:57.120Z,58.08
2023-02-03T02:26:26.994Z,58.23
2023-02-03T02:29:28.039Z,58.15
2023-02-03T02:32:16.250Z,58.05
2023-02-03T02:34:55.911Z,57.95
2023-02-03T02:37:35.117Z,57.87
2023-02-03T02:40:19.707Z,57.70
2023-02-03T02:43:02.242Z,57.67
2023-02-03T02:45:39.204Z,57.45
2023-02-03T02:48:17.522Z,57.51
2023-02-03T02:50:49.481Z,57.56
2023-02-03T02:53:22.730Z,57.57
2023-02-03T02:55:51.906Z,57.49
2023-02-03T02:58:21.632Z,57.51
2023-02-03T03:00:48.557Z,57.16
2023-02-03T03:03:20.057Z,57.26
2023-02-03T03:05:53.626Z,57.11
2023-02-03T03:08:29.163Z,56.80
2023-02-03T03:11:00.800Z,56.68
2023-02-03T03:13:34.035Z,56.68
2023-02-03T03:16:07.584Z,56.40
2023-02-03T03:18:43.367Z,56.44
2023-02-03T03:21:18.249Z,56.57
2023-02-03T03:23:51.263Z,56.37
2023-02-03T03:26:28.722Z,56.42
2023-02-03T03:29:06.714Z,56.31
2023-02-03T03:31:33.892Z,56.48
2023-02-03T03:34:02.969Z,56.47
2023-02-03T03:36:38.761Z,56.33
2023-02-03T03:39:15.620Z,56.22
2023-02-03T03:41:57.843Z,55.96
2023-02-03T03:44:32.973Z,56.02
2023-02-03T03:47:19.088Z,56.13
2023-02-03T03:49:48.950Z,56.20
2023-02-03T03:52:22.372Z,56.14
2023-02-03T03:54:52.639Z,56.05
2023-02-03T03:57:25.894Z,56.00
2023-02-03T03:59:54.694Z,56.00
2023-02-03T04:02:23.904Z,56.00
2023-02-03T04:04:54.095Z,55.86
2023-02-03T04:07:21.054Z,56.12
2023-02-03T04:09:48.129Z,56.09
2023-02-03T04:12:23.141Z,56.05
2023-02-03T04:14:50.223Z,56.15
2023-02-03T04:17:19.933Z,56.15
2023-02-03T04:19:47.514Z,56.20
2023-02-03T04:22:15.698Z,56.78
2023-02-03T04:24:42.640Z,56.45
2023-02-03T04:27:09.673Z,56.24
2023-02-03T04:29:36.623Z,56.32
2023-02-03T04:32:03.997Z,56.22
2023-02-03T04:34:30.930Z,56.43
2023-02-03T04:36:57.878Z,56.76
2023-02-03T04:39:26.149Z,56.87
2023-02-03T04:41:53.022Z,57.01
2023-02-03T04:44:19.911Z,57.10
2023-02-03T04:46:46.834Z,57.39
2023-02-03T04:49:13.707Z,57.53
2023-02-03T04:51:40.592Z,57.52
2023-02-03T04:54:08.657Z,57.79
2023-02-03T04:56:37.623Z,57.73
2023-02-03T04:59:04.594Z,57.70
2023-02-03T05:01:31.688Z,57.91
2023-02-03T05:03:58.642Z,57.73
2023-02-03T05:06:32.750Z,57.63
2023-02-03T05:08:59.593Z,57.47
2023-02-03T05:11:27.051Z,57.30
2023-02-03T05:13:55.391Z,57.09
2023-02-03T05:16:22.374Z,56.77
2023-02-03T05:18:49.325Z,56.82
2023-02-03T05:21:16.443Z,56.82
2023-02-03T05:23:43.339Z,56.79
2023-02-03T05:26:10.731Z,56.66
2023-02-03T05:28:37.856Z,56.66
2023-02-03T05:31:06.506Z,56.58
2023-02-03T05:33:33.733Z,56.71
2023-02-03T05:36:00.653Z,56.37
2023-02-03T05:38:27.782Z,56.56
2023-02-03T05:41:13.460Z,56.56
2023-02-03T05:43:40.339Z,56.69
2023-02-03T05:46:08.697Z,56.75
2023-02-03T05:48:35.768Z,56.97
2023-02-03T05:51:02.830Z,57.04
2023-02-03T05:53:29.760Z,57.17
2023-02-03T05:55:56.687Z,57.32
2023-02-03T05:58:23.576Z,57.31
2023-02-03T06:00:51.631Z,57.61
2023-02-03T06:03:20.528Z,57.48
2023-02-03T06:05:47.408Z,57.54
2023-02-03T06:08:15.227Z,57.74
2023-02-03T06:10:42.135Z,57.88
2023-02-03T06:13:12.053Z,58.15
2023-02-03T06:15:39.712Z,58.57
2023-02-03T06:18:07.408Z,58.85
2023-02-03T06:20:35.860Z,58.88
2023-02-03T06:23:02.834Z,59.32
2023-02-03T06:25:32.058Z,59.49
2023-02-03T06:27:59.389Z,59.68
2023-02-03T06:30:26.853Z,60.25
2023-02-03T06:32:54.499Z,60.37
2023-02-03T06:35:21.420Z,60.06
2023-02-03T06:37:49.623Z,60.44
2023-02-03T06:40:16.576Z,60.37
2023-02-03T06:42:45.877Z,60.51
2023-02-03T06:45:13.130Z,60.50
2023-02-03T06:47:40.754Z,60.35
2023-02-03T06:50:09.175Z,60.47
2023-02-03T06:52:36.228Z,60.31
2023-02-03T06:55:05.734Z,59.98
2023-02-03T06:57:33.080Z,59.86
2023-02-03T06:59:59.972Z,59.62
2023-02-03T07:02:26.899Z,59.62
2023-02-03T07:04:53.788Z,59.14
2023-02-03T07:07:20.682Z,58.79
2023-02-03T07:09:47.560Z,58.55
2023-02-03T07:12:15.885Z,58.55
2023-02-03T07:14:42.876Z,58.62
2023-02-03T07:17:09.795Z,58.34
2023-02-03T07:19:36.904Z,58.10
2023-02-03T07:22:03.830Z,57.85
2023-02-03T07:24:30.708Z,57.97
2023-02-03T07:26:57.702Z,57.65
2023-02-03T07:29:25.979Z,57.14
2023-02-03T07:31:53.001Z,57.37
2023-02-03T07:34:20.279Z,57.02
2023-02-03T07:36:47.193Z,57.19
2023-02-03T07:39:14.125Z,57.11
2023-02-03T07:41:41.108Z,57.04
2023-02-03T07:44:09.335Z,56.81
2023-02-03T07:46:41.347Z,56.76
2023-02-03T07:49:10.345Z,56.85
2023-02-03T07:51:37.375Z,56.56
2023-02-03T07:54:04.848Z,56.37
2023-02-03T07:56:32.749Z,56.66
2023-02-03T07:59:02.383Z,56.58
2023-02-03T08:01:34.021Z,56.72
2023-02-03T08:04:05.214Z,56.44
2023-02-03T08:06:32.258Z,56.35
2023-02-03T08:08:59.209Z,56.20
2023-02-03T08:11:26.199Z,56.00
2023-02-03T08:13:53.160Z,56.16
2023-02-03T08:16:20.543Z,56.47
2023-02-03T08:18:47.472Z,56.12
2023-02-03T08:21:15.796Z,55.69
2023-02-03T08:23:42.676Z,56.07
2023-02-03T08:26:09.627Z,55.74
2023-02-03T08:28:36.490Z,55.80
2023-02-03T08:31:10.840Z,55.90
2023-02-03T08:33:38.048Z,55.81
2023-02-03T08:36:06.105Z,55.77
2023-02-03T08:38:34.384Z,55.74
2023-02-03T08:41:01.420Z,55.85
2023-02-03T08:43:28.390Z,56.09
2023-02-03T08:45:55.328Z,56.03
2023-02-03T08:48:22.198Z,56.02
2023-02-03T08:50:52.715Z,55.55
2023-02-03T08:53:19.751Z,55.76
2023-02-03T08:55:48.101Z,55.40
2023-02-03T08:58:15.164Z,55.70
2023-02-03T09:00:42.646Z,55.44
2023-02-03T09:03:09.611Z,55.67
2023-02-03T09:05:37.047Z,55.42
2023-02-03T09:08:04.407Z,55.73
2023-02-03T09:10:31.510Z,54.82
2023-02-03T09:12:59.907Z,54.21
2023-02-03T09:15:27.044Z,54.14
2023-02-03T09:17:55.330Z,52.93
2023-02-03T09:20:23.484Z,52.88
2023-02-03T09:22:50.461Z,52.45
2023-02-03T09:25:17.782Z,51.69
2023-02-03T09:27:44.795Z,51.06
2023-02-03T09:30:14.421Z,50.72
2023-02-03T09:32:41.481Z,50.88
2023-02-03T09:35:08.591Z,50.47
2023-02-03T09:37:36.300Z,50.41
2023-02-03T09:40:03.937Z,50.11
2023-02-03T09:43:17.800Z,49.80
2023-02-03T09:45:46.181Z,50.21
2023-02-03T09:48:18.871Z,49.46
2023-02-03T09:50:48.984Z,49.32
2023-02-03T09:53:28.959Z,49.50
2023-02-03T09:55:58.492Z,49.36
2023-02-03T09:58:32.544Z,49.02
2023-02-03T10:01:05.543Z,48.52
2023-02-03T10:03:42.607Z,48.20
2023-02-03T10:06:26.126Z,47.98
2023-02-03T10:09:14.659Z,48.38
2023-02-03T10:12:12.362Z,48.07
2023-02-03T10:15:05.879Z,48.12
2023-02-03T10:17:39.952Z,47.63
2023-02-03T10:20:17.328Z,47.65
2023-02-03T10:22:53.456Z,47.10
2023-02-03T10:25:31.717Z,47.01
2023-02-03T10:28:04.792Z,46.67
2023-02-03T10:30:45.235Z,46.77
2023-02-03T10:33:17.624Z,46.93
2023-02-03T10:35:50.747Z,46.86
2023-02-03T10:38:35.800Z,46.47
2023-02-03T10:41:04.096Z,45.76
2023-02-03T10:43:47.968Z,45.90
2023-02-03T10:46:16.069Z,45.28
2023-02-03T10:48:44.677Z,44.69
2023-02-03T10:51:21.029Z,44.31
2023-02-03T10:53:48.616Z,43.57
2023-02-03T10:56:20.329Z,43.51
2023-02-03T10:58:50.544Z,42.45
2023-02-03T11:01:21.369Z,42.25
2023-02-03T11:04:00.334Z,42.35
2023-02-03T11:06:28.641Z,41.55
2023-02-03T11:08:56.432Z,41.58
2023-02-03T11:11:27.686Z,41.64
2023-02-03T11:14:17.067Z,41.96
2023-02-03T11:16:47.128Z,42.48
2023-02-03T11:19:19.361Z,41.78
2023-02-03T11:21:51.221Z,41.69
2023-02-03T11:24:22.356Z,41.63
2023-02-03T11:26:55.702Z,42.51
2023-02-03T11:29:26.718Z,42.32
2023-02-03T11:31:56.935Z,41.60
2023-02-03T11:34:31.000Z,40.89
2023-02-03T11:36:57.955Z,41.18
2023-02-03T11:39:28.618Z,41.34
2023-02-03T11:41:56.663Z,41.90
2023-02-03T11:44:29.071Z,41.53
2023-02-03T11:47:03.398Z,41.62
2023-02-03T11:50:02.874Z,41.11
2023-02-03T11:53:05.000Z,41.67
2023-02-03T11:55:54.037Z,41.80
2023-02-03T11:58:56.090Z,41.11
2023-02-03T12:02:09.672Z,41.27
2023-02-03T12:05:06.308Z,40.98
2023-02-03T12:07:58.363Z,40.66
2023-02-03T12:10:43.221Z,40.41
2023-02-03T12:13:33.830Z,40.14
2023-02-03T12:16:23.024Z,40.24
2023-02-03T12:19:07.848Z,40.41
2023-02-03T12:21:44.415Z,40.62
2023-02-03T12:24:30.621Z,40.72
2023-02-03T12:27:16.322Z,40.63
2023-02-03T12:29:53.701Z,40.17
2023-02-03T12:32:32.011Z,40.48
2023-02-03T12:35:11.647Z,40.34
2023-02-03T12:37:48.511Z,39.58
2023-02-03T12:40:26.511Z,39.71
2023-02-03T12:42:59.017Z,40.02
2023-02-03T12:45:31.242Z,40.17
2023-02-03T12:48:05.026Z,40.03
2023-02-03T12:50:44.671Z,40.06
2023-02-03T12:53:20.819Z,40.24
2023-02-03T12:55:55.778Z,40.58
2023-02-03T12:58:28.480Z,40.56
2023-02-03T13:01:04.246Z,40.72
2023-02-03T13:03:41.162Z,40.69
2023-02-03T13:06:17.419Z,40.77
2023-02-03T13:08:56.034Z,40.83
2023-02-03T13:11:31.959Z,40.74
2023-02-03T13:14:15.302Z,40.53
2023-02-03T13:16:51.333Z,40.11
2023-02-03T13:19:25.620Z,40.08
2023-02-03T13:21:52.901Z,40.18
2023-02-03T13:24:26.190Z,39.98
2023-02-03T13:27:30.787Z,40.80
2023-02-03T13:30:31.928Z,41.22
2023-02-03T13:33:42.327Z,41.89
2023-02-03T13:36:39.352Z,42.03
2023-02-03T13:39:40.475Z,42.12
2023-02-03T13:42:23.553Z,42.36
2023-02-03T13:44:57.055Z,42.56
2023-02-03T13:47:28.934Z,42.63
2023-02-03T13:50:01.179Z,42.17
2023-02-03T13:52:34.936Z,42.51
2023-02-03T13:55:05.366Z,42.53
2023-02-03T13:57:36.464Z,42.64
2023-02-03T14:00:27.208Z,42.45
2023-02-03T14:02:56.164Z,42.72
2023-02-03T14:05:42.821Z,42.63
2023-02-03T14:08:52.412Z,42.46
2023-02-03T14:11:41.718Z,42.73
2023-02-03T14:14:45.045Z,42.96
2023-02-03T14:18:24.642Z,43.04
2023-02-03T14:21:10.169Z,43.35
2023-02-03T14:23:49.715Z,43.23
2023-02-03T14:26:30.163Z,43.02
2023-02-03T14:29:00.413Z,43.26
2023-02-03T14:31:28.259Z,42.81
2023-02-03T14:34:14.383Z,42.90
2023-02-03T14:36:55.307Z,43.19
2023-02-03T14:40:11.393Z,43.25
2023-02-03T14:43:21.575Z,43.18
2023-02-03T14:46:32.065Z,43.41
2023-02-03T14:49:30.230Z,43.58
2023-02-03T14:52:16.857Z,43.84
2023-02-03T14:55:05.648Z,43.62
2023-02-03T14:57:43.431Z,43.55
2023-02-03T15:00:31.251Z,43.69
2023-02-03T15:03:30.143Z,43.45
2023-02-03T15:06:01.571Z,43.41
2023-02-03T15:08:45.243Z,43.50
2023-02-03T15:11:30.102Z,43.44
2023-02-03T15:14:21.774Z,43.56
2023-02-03T15:16:55.916Z,43.69
2023-02-03T15:19:28.196Z,43.77
2023-02-03T15:21:55.546Z,43.61
2023-02-03T15:24:24.121Z,43.79
2023-02-03T15:26:54.489Z,43.89
2023-02-03T15:29:33.356Z,43.56
2023-02-03T15:32:09.557Z,43.65
2023-02-03T15:34:43.572Z,43.88
2023-02-03T15:37:18.797Z,43.35
2023-02-03T15:40:00.742Z,43.46
2023-02-03T15:42:35.542Z,43.62
2023-02-03T15:45:12.867Z,43.65
2023-02-03T15:47:48.132Z,43.96
2023-02-03T15:50:30.724Z,44.02
2023-02-03T15:53:04.755Z,44.14
2023-02-03T15:55:37.891Z,44.47
2023-02-03T15:58:05.749Z,44.25
2023-02-03T16:00:39.536Z,44.45
2023-02-03T16:03:19.652Z,44.77
2023-02-03T16:05:50.101Z,44.87
2023-02-03T16:08:39.677Z,45.10
2023-02-03T16:11:32.352Z,45.12
2023-02-03T16:14:03.225Z,45.22
2023-02-03T16:16:36.674Z,45.51
2023-02-03T16:19:12.135Z,45.86
2023-02-03T16:21:54.180Z,45.71
2023-02-03T16:24:38.857Z,45.82
2023-02-03T16:27:36.026Z,45.92
2023-02-03T16:30:42.811Z,45.88
2023-02-03T16:33:35.238Z,46.29
2023-02-03T16:36:29.913Z,46.21
2023-02-03T16:39:21.705Z,46.15
2023-02-03T16:42:07.489Z,46.11
2023-02-03T16:44:57.167Z,46.41
2023-02-03T16:47:45.974Z,46.29
2023-02-03T16:50:38.595Z,46.31
2023-02-03T16:53:12.375Z,46.35
2023-02-03T16:55:41.226Z,46.34
2023-02-03T16:58:09.547Z,46.33
2023-02-03T17:00:36.524Z,46.21
2023-02-03T17:03:05.375Z,46.27
2023-02-03T17:05:36.512Z,45.95
2023-02-03T17:08:03.737Z,46.34
2023-02-03T17:10:30.678Z,46.27
2023-02-03T17:12:58.893Z,46.63
2023-02-03T17:15:26.065Z,46.88
2023-02-03T17:17:52.940Z,46.75
2023-02-03T17:20:20.273Z,46.73
2023-02-03T17:22:47.518Z,46.85
2023-02-03T17:25:14.501Z,47.01
2023-02-03T17:27:41.472Z,47.09
2023-02-03T17:30:11.889Z,47.11
2023-02-03T17:32:39.033Z,47.07
2023-02-03T17:35:06.854Z,47.55
2023-02-03T17:37:34.357Z,47.34
2023-02-03T17:53:57.321Z,48.06
2023-02-03T17:56:25.906Z,48.65
2023-02-03T17:58:55.570Z,49.46
2023-02-03T18:01:25.257Z,50.27
2023-02-03T18:03:55.616Z,50.75
2023-02-03T18:06:26.390Z,51.00
2023-02-03T18:08:54.340Z,51.09
2023-02-03T18:11:21.484Z,51.49
2023-02-03T18:13:49.849Z,51.48
2023-02-03T18:16:22.197Z,51.52
2023-02-03T18:18:52.544Z,51.55
2023-02-03T18:21:22.564Z,51.69
2023-02-03T18:23:51.105Z,51.94
2023-02-03T18:26:20.317Z,52.07
2023-02-03T18:28:50.523Z,51.75
2023-02-03T18:31:17.664Z,51.55
2023-02-03T18:33:46.482Z,51.61
2023-02-03T18:36:16.706Z,51.48
2023-02-03T18:38:46.193Z,51.57
2023-02-03T18:41:16.241Z,51.46
2023-02-03T18:43:43.892Z,51.61
2023-02-03T18:46:13.132Z,51.33
2023-02-03T18:48:40.104Z,51.06
2023-02-03T18:51:09.295Z,51.22
2023-02-03T18:53:38.288Z,51.07
2023-02-03T18:56:07.722Z,51.31
2023-02-03T18:58:36.817Z,51.53
2023-02-03T19:01:04.003Z,51.53
2023-02-03T19:03:31.090Z,51.70
2023-02-03T19:05:58.020Z,51.57
2023-02-03T19:08:25.170Z,51.68
2023-02-03T19:10:54.627Z,51.76
2023-02-03T19:13:22.182Z,51.82
2023-02-03T19:15:51.414Z,51.76
2023-02-03T19:18:18.366Z,51.66
2023-02-03T19:20:45.509Z,51.83
2023-02-03T19:23:12.651Z,51.42
2023-02-03T19:25:40.413Z,51.52
2023-02-03T19:28:14.247Z,51.45
2023-02-03T19:30:44.824Z,51.23
2023-02-03T19:33:11.939Z,51.61
2023-02-03T19:35:39.389Z,51.39
2023-02-03T19:38:06.359Z,51.41
2023-02-03T19:40:33.336Z,51.20
2023-02-03T19:43:00.473Z,51.19
2023-02-03T19:45:28.803Z,51.13
2023-02-03T19:47:55.843Z,50.99
2023-02-03T19:50:22.856Z,51.06
2023-02-03T19:52:49.727Z,51.10
2023-02-03T19:55:17.080Z,51.15
2023-02-03T19:57:44.020Z,51.20
2023-02-03T20:00:13.292Z,51.04
2023-02-03T20:02:41.990Z,51.05
2023-02-03T20:05:10.667Z,50.95
2023-02-03T20:07:37.610Z,51.04
2023-02-03T20:10:05.004Z,50.94
2023-02-03T20:12:32.116Z,50.88
2023-02-03T20:15:01.356Z,50.89
2023-02-03T20:17:28.562Z,50.80
2023-02-03T20:19:56.804Z,50.85
2023-02-03T20:22:23.902Z,51.00
2023-02-03T20:24:50.812Z,50.90
2023-02-03T20:27:17.883Z,50.81
2023-02-03T20:29:44.887Z,51.06
2023-02-03T20:32:11.798Z,51.01
2023-02-03T20:34:39.484Z,50.96
2023-02-03T20:37:08.402Z,50.99
2023-02-03T20:39:35.466Z,51.06
2023-02-03T20:42:02.499Z,50.92
2023-02-03T20:44:29.453Z,50.98
2023-02-03T20:46:56.424Z,51.11
2023-02-03T20:49:23.304Z,51.17
2023-02-03T20:51:50.200Z,51.22
2023-02-03T20:54:21.483Z,51.27
2023-02-03T20:56:49.255Z,51.21
2023-02-03T20:59:19.265Z,51.18
2023-02-03T21:01:46.948Z,51.13
2023-02-03T21:04:34.654Z,51.08
2023-02-03T21:07:11.335Z,51.03
2023-02-03T21:09:40.154Z,51.03
2023-02-03T21:12:11.736Z,50.87
2023-02-03T21:14:43.275Z,50.68
2023-02-03T21:17:17.845Z,50.47
2023-02-03T21:19:45.306Z,50.38
2023-02-03T21:22:21.094Z,50.34
2023-02-03T21:24:54.868Z,50.32
2023-02-03T21:27:28.789Z,50.18
2023-02-03T21:29:57.483Z,50.17
2023-02-03T21:32:32.212Z,50.15
2023-02-03T21:34:59.167Z,50.18
2023-02-03T21:37:39.289Z,50.42
2023-02-03T21:40:26.485Z,50.58
2023-02-03T21:42:54.769Z,50.55
2023-02-03T21:45:34.237Z,50.84
2023-02-03T21:48:22.484Z,50.83
2023-02-03T21:50:49.373Z,50.87
2023-02-03T21:53:26.760Z,51.04
2023-02-03T21:55:55.430Z,51.19
2023-02-03T21:58:25.878Z,51.11
2023-02-03T22:00:54.841Z,51.32
2023-02-03T22:03:30.799Z,51.24
2023-02-03T22:06:22.777Z,51.53
2023-02-03T22:08:52.656Z,51.27
2023-02-03T22:11:23.767Z,51.36
2023-02-03T22:13:50.897Z,51.45
2023-02-03T22:16:18.703Z,51.22
2023-02-03T22:18:46.867Z,51.32
2023-02-03T22:21:14.708Z,51.44
2023-02-03T22:23:42.293Z,51.48
2023-02-03T22:26:11.084Z,51.19
2023-02-03T22:28:40.601Z,51.12
2023-02-03T22:31:08.423Z,51.01
2023-02-03T22:33:36.128Z,51.15
2023-02-03T22:36:03.959Z,51.36
2023-02-03T22:38:30.838Z,51.18
2023-02-03T22:40:57.950Z,51.33
2023-02-03T22:43:24.945Z,51.18
2023-02-03T22:45:53.679Z,51.39
2023-02-03T22:48:21.355Z,51.29
2023-02-03T22:50:48.282Z,51.13
2023-02-03T22:53:15.305Z,51.22
2023-02-03T22:55:42.895Z,50.34
2023-02-03T22:58:09.859Z,50.38
2023-02-03T23:00:36.828Z,50.52
2023-02-03T23:03:05.970Z,50.35
2023-02-03T23:05:33.072Z,50.40
2023-02-03T23:08:00.162Z,50.47
2023-02-03T23:10:32.438Z,50.36
2023-02-03T23:13:00.676Z,50.41
2023-02-03T23:15:28.913Z,50.50
2023-02-03T23:17:56.088Z,50.70
2023-02-03T23:20:24.341Z,50.90
2023-02-03T23:22:51.424Z,50.91
2023-02-03T23:25:18.791Z,50.92
2023-02-03T23:27:45.954Z,51.05
2023-02-03T23:30:14.990Z,50.70
2023-02-03T23:32:42.094Z,50.95
2023-02-03T23:35:28.366Z,51.38
2023-02-03T23:37:56.554Z,51.28
2023-02-03T23:40:23.627Z,51.15
2023-02-03T23:42:50.607Z,51.07
2023-02-03T23:45:17.804Z,51.58
2023-02-03T23:47:46.424Z,51.12
2023-02-03T23:50:21.235Z,51.26
2023-02-03T23:52:48.809Z,51.27
2023-02-03T23:55:19.672Z,51.17
2023-02-03T23:57:46.955Z,51.78
